SWR54B LSZH-KBOS
Flight info
| Callsign | SWR54B |
|---|---|
| Flight time | N/A |
| Altitude | 34000 |
| Route | VEBIT T10 TORPA DCT REKLA DCT RLP DCT ROTSI/N0481F360 DCT AMODO/N0481F380 DCT COHPA UM729 RESMI UN491 LGL UN502 JSY DCT LIZAD DCT ARKIL DCT TOBOR/M084F390 NATD IBERG/N0484F400 N364A TUSKY DCT EURRO OOSHN5 |
| Aircraft | A359/H-SDE2E3GHIJ1J3J4J5LM1ORWXY/LB1D1 |
Departure
| Time | 2026-05-01 12:52 |
|---|---|
| Airport | Zürich Airport (LSZH) |
Arrival
| Time | N/A |
|---|---|
| Airport | Boston Logan International Airport (KBOS) |
| Time | Latitude | Longitude | Altitude | Speed | Heading |
|---|---|---|---|---|---|
| 2026-05-01 12:20 | 47.45173 | 8.55899 | 1413 ft | 0 kts | 186° |
| 2026-05-01 12:40 | 47.45174 | 8.55899 | 1413 ft | 1 kts | 186° |
| 2026-05-01 12:40 | 47.45198 | 8.55903 | 1419 ft | 4 kts | 186° |
| 2026-05-01 12:40 | 47.45225 | 8.55907 | 1415 ft | 4 kts | 186° |
| 2026-05-01 12:40 | 47.45249 | 8.55911 | 1415 ft | 4 kts | 213° |
| 2026-05-01 12:41 | 47.45255 | 8.55934 | 1420 ft | 4 kts | 287° |
| 2026-05-01 12:41 | 47.45248 | 8.55970 | 1416 ft | 2 kts | 277° |
| 2026-05-01 12:41 | 47.45247 | 8.55980 | 1417 ft | 0 kts | 276° |
| 2026-05-01 12:46 | 47.45251 | 8.55921 | 1415 ft | 12 kts | 276° |
| 2026-05-01 12:46 | 47.45262 | 8.55774 | 1415 ft | 15 kts | 276° |
| 2026-05-01 12:46 | 47.45274 | 8.55612 | 1417 ft | 16 kts | 276° |
| 2026-05-01 12:47 | 47.45320 | 8.55449 | 1415 ft | 19 kts | 301° |
| 2026-05-01 12:47 | 47.45434 | 8.55347 | 1410 ft | 20 kts | 335° |
| 2026-05-01 12:47 | 47.45564 | 8.55258 | 1413 ft | 21 kts | 335° |
| 2026-05-01 12:47 | 47.45697 | 8.55163 | 1409 ft | 22 kts | 335° |
| 2026-05-01 12:48 | 47.45841 | 8.55063 | 1407 ft | 23 kts | 336° |
| 2026-05-01 12:48 | 47.45987 | 8.54963 | 1408 ft | 24 kts | 335° |
| 2026-05-01 12:48 | 47.46143 | 8.54855 | 1403 ft | 25 kts | 335° |
| 2026-05-01 12:48 | 47.46303 | 8.54745 | 1402 ft | 26 kts | 335° |
| 2026-05-01 12:49 | 47.46467 | 8.54632 | 1401 ft | 25 kts | 336° |
| 2026-05-01 12:49 | 47.46624 | 8.54526 | 1401 ft | 25 kts | 335° |
| 2026-05-01 12:49 | 47.46786 | 8.54422 | 1384 ft | 27 kts | 340° |
| 2026-05-01 12:49 | 47.46955 | 8.54311 | 1386 ft | 26 kts | 335° |
| 2026-05-01 12:50 | 47.47115 | 8.54201 | 1399 ft | 25 kts | 335° |
| 2026-05-01 12:50 | 47.47279 | 8.54088 | 1402 ft | 28 kts | 335° |
| 2026-05-01 12:50 | 47.47455 | 8.53967 | 1409 ft | 27 kts | 335° |
| 2026-05-01 12:50 | 47.47597 | 8.53836 | 1412 ft | 18 kts | 301° |
| 2026-05-01 12:51 | 47.47583 | 8.53684 | 1412 ft | 15 kts | 232° |
| 2026-05-01 12:51 | 47.47485 | 8.53649 | 1410 ft | 18 kts | 153° |
| 2026-05-01 12:51 | 47.47303 | 8.53779 | 1404 ft | 59 kts | 154° |
| 2026-05-01 12:52 | 47.46727 | 8.54178 | 1382 ft | 122 kts | 154° |
| 2026-05-01 12:52 | 47.44693 | 8.55558 | 2018 ft | 170 kts | 153° |
| 2026-05-01 12:52 | 47.43645 | 8.56343 | 2683 ft | 173 kts | 147° |
| 2026-05-01 12:53 | 47.43243 | 8.59683 | 3069 ft | 202 kts | 54° |
| 2026-05-01 12:53 | 47.44432 | 8.60796 | 3320 ft | 211 kts | 10° |
| 2026-05-01 12:53 | 47.45866 | 8.60387 | 3819 ft | 217 kts | 328° |
| 2026-05-01 12:54 | 47.46788 | 8.58668 | 4276 ft | 219 kts | 287° |
| 2026-05-01 12:54 | 47.46263 | 8.54326 | 5404 ft | 218 kts | 253° |
| 2026-05-01 12:54 | 47.45842 | 8.52185 | 5876 ft | 224 kts | 258° |
| 2026-05-01 12:55 | 47.44999 | 8.47438 | 6417 ft | 252 kts | 243° |
| 2026-05-01 12:55 | 47.44069 | 8.45293 | 7155 ft | 244 kts | 235° |
| 2026-05-01 12:55 | 47.43089 | 8.43257 | 7736 ft | 243 kts | 234° |
| 2026-05-01 12:56 | 47.42103 | 8.41205 | 8229 ft | 246 kts | 234° |
| 2026-05-01 12:56 | 47.41114 | 8.39127 | 8753 ft | 250 kts | 233° |
| 2026-05-01 12:56 | 47.40093 | 8.36976 | 8994 ft | 265 kts | 233° |
| 2026-05-01 12:56 | 47.39029 | 8.34653 | 9221 ft | 281 kts | 237° |
| 2026-05-01 12:57 | 47.38063 | 8.32110 | 9673 ft | 287 kts | 240° |
| 2026-05-01 12:57 | 47.36179 | 8.26795 | 10578 ft | 301 kts | 240° |
| 2026-05-01 12:57 | 47.35186 | 8.24000 | 10823 ft | 314 kts | 241° |
| 2026-05-01 12:58 | 47.34153 | 8.21080 | 11039 ft | 328 kts | 240° |
| 2026-05-01 12:58 | 47.33077 | 8.18053 | 11261 ft | 340 kts | 241° |
| 2026-05-01 12:58 | 47.31958 | 8.14911 | 11477 ft | 352 kts | 240° |
| 2026-05-01 12:59 | 47.29616 | 8.08319 | 12037 ft | 370 kts | 241° |
| 2026-05-01 12:59 | 47.28418 | 8.04947 | 12478 ft | 373 kts | 242° |
| 2026-05-01 12:59 | 47.27149 | 7.97527 | 13320 ft | 383 kts | 269° |
| 2026-05-01 13:00 | 47.27659 | 7.89674 | 14187 ft | 388 kts | 278° |
| 2026-05-01 13:00 | 47.28094 | 7.85736 | 14579 ft | 390 kts | 279° |
| 2026-05-01 13:01 | 47.28993 | 7.77802 | 15356 ft | 395 kts | 278° |
| 2026-05-01 13:01 | 47.29413 | 7.73794 | 15767 ft | 397 kts | 278° |
| 2026-05-01 13:01 | 47.30204 | 7.65740 | 16543 ft | 401 kts | 278° |
| 2026-05-01 13:02 | 47.30816 | 7.61722 | 16919 ft | 404 kts | 284° |
| 2026-05-01 13:07 | 47.46835 | 6.73614 | 23834 ft | 444 kts | 282° |
| 2026-05-01 13:07 | 47.47478 | 6.69149 | 24122 ft | 445 kts | 282° |
| 2026-05-01 13:07 | 47.47984 | 6.64622 | 24407 ft | 446 kts | 277° |
| 2026-05-01 13:08 | 47.48376 | 6.60068 | 24668 ft | 447 kts | 276° |
| 2026-05-01 13:08 | 47.48729 | 6.55499 | 24911 ft | 449 kts | 276° |
| 2026-05-01 13:08 | 47.49062 | 6.50889 | 25136 ft | 451 kts | 275° |
| 2026-05-01 13:08 | 47.49385 | 6.46271 | 25402 ft | 452 kts | 275° |
| 2026-05-01 13:09 | 47.49705 | 6.41647 | 25672 ft | 453 kts | 275° |
| 2026-05-01 13:09 | 47.50026 | 6.37003 | 25922 ft | 455 kts | 275° |
| 2026-05-01 13:09 | 47.50349 | 6.32338 | 26167 ft | 457 kts | 275° |
| 2026-05-01 13:09 | 47.50674 | 6.27651 | 26427 ft | 458 kts | 275° |
| 2026-05-01 13:10 | 47.50999 | 6.22964 | 26679 ft | 460 kts | 275° |
| 2026-05-01 13:10 | 47.51325 | 6.18242 | 26942 ft | 462 kts | 275° |
| 2026-05-01 13:10 | 47.51650 | 6.13502 | 27210 ft | 464 kts | 275° |
| 2026-05-01 13:10 | 47.51974 | 6.08750 | 27470 ft | 465 kts | 275° |
| 2026-05-01 13:11 | 47.52297 | 6.03988 | 27742 ft | 467 kts | 274° |
| 2026-05-01 13:11 | 47.52619 | 5.99207 | 28014 ft | 468 kts | 274° |
| 2026-05-01 13:11 | 47.52962 | 5.94400 | 28286 ft | 470 kts | 277° |
| 2026-05-01 13:11 | 47.53623 | 5.89658 | 28541 ft | 473 kts | 285° |
| 2026-05-01 13:12 | 47.54777 | 5.85070 | 28815 ft | 476 kts | 294° |
| 2026-05-01 13:12 | 47.56440 | 5.80813 | 28943 ft | 483 kts | 304° |
| 2026-05-01 13:12 | 47.57819 | 5.78206 | 29085 ft | 485 kts | 309° |
| 2026-05-01 13:12 | 47.60037 | 5.74421 | 29384 ft | 487 kts | 311° |
| 2026-05-01 13:13 | 47.62326 | 5.70718 | 29672 ft | 489 kts | 312° |
| 2026-05-01 13:13 | 47.65396 | 5.65857 | 30043 ft | 491 kts | 312° |
| 2026-05-01 13:13 | 47.67729 | 5.62165 | 30339 ft | 492 kts | 312° |
| 2026-05-01 13:13 | 47.70086 | 5.58404 | 30623 ft | 493 kts | 312° |
| 2026-05-01 13:14 | 47.72417 | 5.54656 | 30844 ft | 495 kts | 311° |
| 2026-05-01 13:14 | 47.73990 | 5.52113 | 31006 ft | 496 kts | 311° |
| 2026-05-01 13:14 | 47.76329 | 5.48317 | 31221 ft | 498 kts | 311° |
| 2026-05-01 13:15 | 47.81040 | 5.40639 | 31444 ft | 506 kts | 311° |
| 2026-05-01 13:15 | 47.83382 | 5.36813 | 31687 ft | 507 kts | 311° |
| 2026-05-01 13:15 | 47.85758 | 5.32928 | 31915 ft | 508 kts | 311° |
| 2026-05-01 13:15 | 47.88131 | 5.29042 | 32177 ft | 508 kts | 311° |
| 2026-05-01 13:16 | 47.90496 | 5.25165 | 32527 ft | 505 kts | 311° |
| 2026-05-01 13:16 | 47.92858 | 5.21297 | 32890 ft | 503 kts | 311° |
| 2026-05-01 13:16 | 47.95181 | 5.17481 | 33168 ft | 503 kts | 310° |
| 2026-05-01 13:17 | 48.02242 | 5.05824 | 33811 ft | 506 kts | 310° |
| 2026-05-01 13:17 | 48.04589 | 5.01935 | 33914 ft | 509 kts | 310° |
| 2026-05-01 13:18 | 48.09308 | 4.94111 | 34566 ft | 505 kts | 310° |
| 2026-05-01 13:18 | 48.11662 | 4.90202 | 34842 ft | 503 kts | 310° |
| 2026-05-01 13:18 | 48.14001 | 4.86311 | 35155 ft | 500 kts | 310° |
| 2026-05-01 13:18 | 48.16322 | 4.82445 | 35476 ft | 498 kts | 310° |
| 2026-05-01 13:19 | 48.18633 | 4.78588 | 35725 ft | 497 kts | 310° |
| 2026-05-01 13:19 | 48.20941 | 4.74730 | 35972 ft | 496 kts | 310° |
| 2026-05-01 13:19 | 48.25276 | 4.66738 | 36272 ft | 496 kts | 300° |
| 2026-05-01 13:20 | 48.26920 | 4.62182 | 36387 ft | 494 kts | 291° |
| 2026-05-01 13:20 | 48.28058 | 4.57350 | 36593 ft | 490 kts | 282° |
| 2026-05-01 13:20 | 48.28744 | 4.52354 | 36831 ft | 486 kts | 277° |
| 2026-05-01 13:21 | 48.29736 | 4.42334 | 37245 ft | 484 kts | 275° |
| 2026-05-01 13:21 | 48.30166 | 4.37345 | 37434 ft | 483 kts | 275° |
| 2026-05-01 13:21 | 48.30593 | 4.32338 | 37604 ft | 482 kts | 275° |
| 2026-05-01 13:21 | 48.31022 | 4.27349 | 37800 ft | 481 kts | 275° |
| 2026-05-01 13:22 | 48.31458 | 4.22367 | 37989 ft | 480 kts | 275° |
| 2026-05-01 13:22 | 48.31891 | 4.17470 | 38154 ft | 480 kts | 275° |
| 2026-05-01 13:22 | 48.32333 | 4.12499 | 38319 ft | 479 kts | 275° |
| 2026-05-01 13:22 | 48.32773 | 4.07552 | 38482 ft | 478 kts | 276° |
| 2026-05-01 13:23 | 48.33211 | 4.02605 | 38630 ft | 478 kts | 276° |
| 2026-05-01 13:23 | 48.33654 | 3.97590 | 38780 ft | 477 kts | 276° |
| 2026-05-01 13:23 | 48.34081 | 3.92719 | 38900 ft | 476 kts | 276° |
| 2026-05-01 13:23 | 48.34517 | 3.87728 | 38998 ft | 476 kts | 276° |
| 2026-05-01 13:24 | 48.35366 | 3.77910 | 39145 ft | 476 kts | 276° |
| 2026-05-01 13:25 | 48.36630 | 3.63100 | 39382 ft | 476 kts | 276° |
| 2026-05-01 13:25 | 48.37462 | 3.53228 | 39530 ft | 476 kts | 275° |
| 2026-05-01 13:26 | 48.38285 | 3.43361 | 39680 ft | 476 kts | 275° |
| 2026-05-01 13:26 | 48.39099 | 3.33487 | 39794 ft | 476 kts | 275° |
| 2026-05-01 13:27 | 48.39908 | 3.23571 | 39829 ft | 478 kts | 275° |
| 2026-05-01 13:27 | 48.41106 | 3.08697 | 40029 ft | 477 kts | 275° |
| 2026-05-01 13:28 | 48.42770 | 2.93961 | 40194 ft | 478 kts | 283° |
| 2026-05-01 13:29 | 48.46429 | 2.74612 | 40213 ft | 482 kts | 285° |
| 2026-05-01 13:31 | 48.51976 | 2.45439 | 40211 ft | 483 kts | 284° |
| 2026-05-01 13:32 | 48.56529 | 2.21043 | 40211 ft | 483 kts | 284° |
| 2026-05-01 13:33 | 48.60146 | 1.96333 | 40212 ft | 482 kts | 279° |
| 2026-05-01 13:34 | 48.62804 | 1.76662 | 40203 ft | 481 kts | 280° |
| 2026-05-01 13:35 | 48.64847 | 1.61809 | 40206 ft | 482 kts | 280° |
| 2026-05-01 13:36 | 48.66858 | 1.46920 | 40202 ft | 482 kts | 280° |
| 2026-05-01 13:36 | 48.68838 | 1.32055 | 40201 ft | 482 kts | 280° |